Allen's Hourly Summary for Tuesday, March 14, 2017
Hour Temp
(f)
RH
(%)
Solar Rad.
(MJ/m2)
Rainfall
(in)
Wind
(mph)
3/14/2017 12:00 AM 43 42 0 0 2.63
3/14/2017 1:00 AM 41 45 0 0 2.42
3/14/2017 2:00 AM 40 49 0 0 1.42
3/14/2017 3:00 AM 38 53 0 0 0.68
3/14/2017 4:00 AM 37 55 0 0 0.11
3/14/2017 5:00 AM 37 59 0 0 0.83
3/14/2017 6:00 AM 36 59 0 0 0.51
3/14/2017 7:00 AM 35 62 0 0 0.95
3/14/2017 8:00 AM 35 65 0.03 0 0.74
3/14/2017 9:00 AM 38 54 0.55 0 1.55
3/14/2017 10:00 AM 41 47 1.28 0 2.75
3/14/2017 11:00 AM 44 44 2 0 2.09
3/14/2017 12:00 PM 47 40 2.6 0 2.06
3/14/2017 1:00 PM 49 37 2.93 0 1.83
3/14/2017 2:00 PM 52 33 3.06 0 2.01
3/14/2017 3:00 PM 55 29 2.87 0 1.79
3/14/2017 4:00 PM 57 29 2.64 0 3.02
3/14/2017 5:00 PM 57 30 1.99 0 3.44
3/14/2017 6:00 PM 58 31 1.12 0 2.33
3/14/2017 7:00 PM 57 31 0.13 0 2.05
3/14/2017 8:00 PM 56 33 0.03 0 1.25
3/14/2017 9:00 PM 54 37 0 0 0.98
3/14/2017 10:00 PM 52 40 0 0 2.18
3/14/2017 11:00 PM 50 48 0 0 2.52
Data Summary 46 43 21.23 0.00 1.76